createdAt,value
2023-05-16T00:00:24.703Z,12.19
2023-05-16T00:12:24.569Z,12.19
2023-05-16T00:24:24.528Z,12.16
2023-05-16T00:36:24.516Z,12.17
2023-05-16T00:48:24.535Z,12.15
2023-05-16T01:00:24.709Z,12.14
2023-05-16T01:12:24.427Z,12.13
2023-05-16T01:24:24.539Z,12.10
2023-05-16T01:36:24.419Z,12.11
2023-05-16T01:48:24.431Z,12.09
2023-05-16T02:00:24.478Z,12.08
2023-05-16T02:12:24.422Z,12.07
2023-05-16T02:24:24.547Z,12.06
2023-05-16T02:36:24.441Z,12.05
2023-05-16T02:48:24.430Z,12.03
2023-05-16T03:00:24.548Z,12.02
2023-05-16T03:12:24.457Z,12.00
2023-05-16T03:24:24.549Z,12.00
2023-05-16T03:36:24.459Z,11.99
2023-05-16T03:48:24.426Z,11.98
2023-05-16T04:00:24.623Z,11.97
2023-05-16T04:12:24.597Z,11.95
2023-05-16T04:24:24.493Z,11.93
2023-05-16T04:36:24.436Z,11.94
2023-05-16T04:48:24.438Z,11.93
2023-05-16T05:00:24.600Z,11.92
2023-05-16T05:12:24.581Z,11.92
2023-05-16T05:24:24.540Z,11.92
2023-05-16T05:36:24.530Z,11.92
2023-05-16T05:48:24.421Z,11.92
2023-05-16T06:00:24.508Z,11.92
2023-05-16T06:12:24.587Z,11.92
2023-05-16T06:24:24.432Z,11.94
2023-05-16T06:36:24.517Z,11.94
2023-05-16T06:48:24.504Z,12.01
2023-05-16T07:00:24.437Z,12.02
2023-05-16T07:12:24.491Z,12.00
2023-05-16T07:24:24.434Z,12.00
2023-05-16T07:36:24.553Z,11.99
2023-05-16T07:48:24.431Z,12.05
2023-05-16T08:00:24.486Z,12.08
2023-05-16T08:12:24.504Z,12.18
2023-05-16T08:24:24.538Z,12.57
2023-05-16T08:36:24.548Z,12.45
2023-05-16T08:48:24.679Z,12.58
2023-05-16T09:00:24.445Z,12.77
2023-05-16T09:12:24.547Z,12.74
2023-05-16T09:24:24.540Z,12.76
2023-05-16T09:36:24.441Z,12.77
2023-05-16T09:48:24.525Z,12.77
2023-05-16T10:00:24.440Z,12.77
2023-05-16T10:12:24.426Z,12.77
2023-05-16T10:24:24.456Z,12.82
2023-05-16T10:36:24.566Z,12.82
2023-05-16T10:48:24.471Z,12.82
2023-05-16T11:00:24.508Z,12.82
2023-05-16T11:12:24.424Z,12.81
2023-05-16T11:24:24.666Z,12.80
2023-05-16T11:36:24.424Z,12.80
2023-05-16T11:48:35.635Z,12.80
2023-05-16T12:00:24.543Z,12.79
2023-05-16T12:12:24.528Z,12.80
2023-05-16T12:24:24.417Z,12.81
2023-05-16T12:36:24.545Z,12.81
2023-05-16T12:48:24.434Z,12.81
2023-05-16T13:00:24.540Z,12.81
2023-05-16T13:12:24.474Z,12.81
2023-05-16T13:24:24.473Z,12.82
2023-05-16T13:36:24.548Z,12.82
2023-05-16T13:48:24.545Z,12.81
2023-05-16T14:12:24.437Z,12.81
2023-05-16T14:24:24.496Z,12.81
2023-05-16T14:36:24.432Z,12.80
2023-05-16T14:48:24.486Z,12.81
2023-05-16T15:00:24.548Z,12.81
2023-05-16T15:12:24.485Z,12.80
2023-05-16T15:24:24.527Z,12.80
2023-05-16T15:36:24.518Z,12.78
2023-05-16T15:48:24.545Z,12.77
2023-05-16T16:00:24.514Z,12.78
2023-05-16T16:12:24.462Z,12.76
2023-05-16T16:24:24.425Z,12.73
2023-05-16T16:36:24.546Z,12.74
2023-05-16T16:48:24.436Z,12.71
2023-05-16T17:00:24.549Z,12.69
2023-05-16T17:12:24.435Z,12.68
2023-05-16T17:24:24.490Z,12.64
2023-05-16T17:36:24.543Z,12.62
2023-05-16T17:48:24.515Z,12.60
2023-05-16T18:00:24.444Z,12.58
2023-05-16T18:12:24.434Z,12.58
2023-05-16T18:24:24.431Z,12.57
2023-05-16T18:36:24.433Z,12.56
2023-05-16T18:48:24.557Z,12.54
2023-05-16T19:00:24.544Z,12.52
2023-05-16T19:12:24.439Z,12.52
2023-05-16T19:24:24.446Z,12.50
2023-05-16T19:36:24.463Z,12.48
2023-05-16T19:48:24.690Z,12.47
2023-05-16T20:00:24.452Z,12.45
2023-05-16T20:12:24.549Z,12.44
2023-05-16T20:24:24.559Z,12.43
2023-05-16T20:36:24.521Z,12.42
2023-05-16T20:48:24.599Z,12.40
2023-05-16T21:00:24.542Z,12.39
2023-05-16T21:12:24.510Z,12.38
2023-05-16T21:24:24.504Z,12.37
2023-05-16T21:36:24.542Z,12.36
2023-05-16T21:48:24.554Z,12.34
2023-05-16T22:00:24.434Z,12.33
2023-05-16T22:12:24.497Z,12.33
2023-05-16T22:24:24.534Z,12.31
2023-05-16T22:36:24.572Z,12.30
2023-05-16T22:48:24.594Z,12.29
2023-05-16T23:00:25.466Z,12.26
2023-05-16T23:12:24.534Z,12.26
2023-05-16T23:24:24.512Z,12.25
2023-05-16T23:36:24.642Z,12.24
2023-05-16T23:48:24.501Z,12.22
